Time;durP1;ratioP1;P1;durP2;ratioP2;P2;SDS_P1;SDS_P2;PMS_P1;PMS_P2;Temp;Humidity;BMP_temperature;BMP_pressure;BME280_temperature;BME280_humidity;BME280_pressure;Samples;Min_cycle;Max_cycle;Signal;HPM_P1;HPM_P2
2024/01/07 00:02:05;;;;;;;5.75;2.70;;;;;;;;;;4981332;28;20125;-81
2024/01/07 00:04:31;;;;;;;6.72;2.70;;;;;;;;;;5010650;28;20133;-81
2024/01/07 00:06:59;;;;;;;4.63;2.50;;;;;;;;;;5006598;28;20030;-81
2024/01/07 00:09:28;;;;;;;5.80;2.85;;;;;;;;;;5013829;28;20451;-81
2024/01/07 00:11:53;;;;;;;5.57;3.22;;;;;;;;;;5005421;28;20390;-80
2024/01/07 00:14:18;;;;;;;6.63;2.70;;;;;;;;;;5015346;28;20045;-80
2024/01/07 00:16:44;;;;;;;5.78;2.60;;;;;;;;;;5015619;28;20034;-81
2024/01/07 00:19:09;;;;;;;8.18;3.70;;;;;;;;;;5017411;28;20148;-81
2024/01/07 00:21:34;;;;;;;5.93;2.50;;;;;;;;;;5022492;28;20052;-82
2024/01/07 00:24:00;;;;;;;5.22;2.40;;;;;;;;;;4988449;28;20041;-80
2024/01/07 00:26:25;;;;;;;6.07;2.80;;;;;;;;;;5017833;28;20479;-81
2024/01/07 00:28:51;;;;;;;5.97;2.75;;;;;;;;;;4997289;28;20059;-82
2024/01/07 00:31:16;;;;;;;6.13;2.40;;;;;;;;;;5019113;28;20075;-82
2024/01/07 00:33:45;;;;;;;5.97;2.85;;;;;;;;;;5035849;28;20046;-81
2024/01/07 00:36:10;;;;;;;5.82;2.75;;;;;;;;;;5034836;28;20065;-81
2024/01/07 00:38:39;;;;;;;5.55;2.80;;;;;;;;;;5014671;28;20029;-80
2024/01/07 00:41:04;;;;;;;6.45;2.40;;;;;;;;;;5033356;28;20516;-82
2024/01/07 00:43:30;;;;;;;6.35;2.65;;;;;;;;;;5037045;28;20044;-81
2024/01/07 00:45:55;;;;;;;6.65;3.03;;;;;;;;;;5035736;28;20029;-81
2024/01/07 00:48:20;;;;;;;6.32;2.90;;;;;;;;;;5038083;28;20033;-82
2024/01/07 00:50:46;;;;;;;6.28;3.15;;;;;;;;;;5038040;28;20488;-81
2024/01/07 00:53:11;;;;;;;6.72;3.00;;;;;;;;;;5043727;28;20095;-82
2024/01/07 00:55:37;;;;;;;6.88;3.22;;;;;;;;;;5023560;28;20174;-80
2024/01/07 00:58:02;;;;;;;7.82;3.25;;;;;;;;;;5033293;28;20061;-81
2024/01/07 01:00:29;;;;;;;5.65;2.75;;;;;;;;;;4984634;28;20042;-81
2024/01/07 01:02:55;;;;;;;6.45;3.10;;;;;;;;;;5005228;28;20144;-81
2024/01/07 01:05:23;;;;;;;6.40;2.95;;;;;;;;;;5037216;28;20469;-80
2024/01/07 01:07:48;;;;;;;7.40;2.50;;;;;;;;;;5036482;28;20116;-80
2024/01/07 01:10:16;;;;;;;6.47;2.55;;;;;;;;;;5037178;28;20455;-81
2024/01/07 01:12:42;;;;;;;8.63;3.63;;;;;;;;;;5036751;28;20033;-80
2024/01/07 01:15:08;;;;;;;4.65;2.15;;;;;;;;;;5042201;28;20045;-80
2024/01/07 01:17:33;;;;;;;6.00;2.47;;;;;;;;;;5019790;28;20392;-81
2024/01/07 01:19:58;;;;;;;5.30;2.50;;;;;;;;;;5041161;28;20047;-82
2024/01/07 01:22:33;;;;;;;4.43;2.20;;;;;;;;;;5019817;28;20767;-82
2024/01/07 01:24:58;;;;;;;6.82;2.47;;;;;;;;;;5022732;28;20685;-79
2024/01/07 01:27:26;;;;;;;6.13;2.47;;;;;;;;;;5008874;28;20037;-81
2024/01/07 01:29:52;;;;;;;4.55;1.70;;;;;;;;;;5013125;28;20085;-82
2024/01/07 01:32:20;;;;;;;4.97;1.85;;;;;;;;;;5020184;28;20082;-80
2024/01/07 01:34:45;;;;;;;4.10;2.00;;;;;;;;;;5036764;28;20037;-81
2024/01/07 01:37:32;;;;;;;4.07;1.33;;;;;;;;;;5037554;28;20041;-80
2024/01/07 01:39:59;;;;;;;3.97;1.70;;;;;;;;;;4976533;28;20038;-81
2024/01/07 01:42:25;;;;;;;4.03;1.80;;;;;;;;;;4948465;28;20691;-80
2024/01/07 01:44:50;;;;;;;3.65;1.63;;;;;;;;;;4951266;28;20042;-80
2024/01/07 01:47:36;;;;;;;3.38;1.60;;;;;;;;;;4965849;28;20070;-79
2024/01/07 01:50:02;;;;;;;4.15;1.63;;;;;;;;;;4919779;29;20487;-81
2024/01/07 01:52:27;;;;;;;4.57;1.88;;;;;;;;;;4916550;29;20122;-79
2024/01/07 01:54:53;;;;;;;4.55;1.80;;;;;;;;;;4904160;29;20036;-79
2024/01/07 01:57:22;;;;;;;5.00;1.95;;;;;;;;;;4920089;29;20809;-80
2024/01/07 01:59:50;;;;;;;5.25;1.50;;;;;;;;;;4921211;29;20091;-79
2024/01/07 02:02:16;;;;;;;4.00;1.63;;;;;;;;;;4902740;29;20039;-80
2024/01/07 02:04:41;;;;;;;6.78;1.85;;;;;;;;;;4917112;29;20098;-81
2024/01/07 02:07:07;;;;;;;4.18;1.65;;;;;;;;;;4901516;29;20111;-83
2024/01/07 02:09:32;;;;;;;5.63;1.98;;;;;;;;;;4904646;29;20033;-81
2024/01/07 02:12:02;;;;;;;4.40;1.70;;;;;;;;;;4908417;29;20078;-81
2024/01/07 02:14:28;;;;;;;5.43;1.88;;;;;;;;;;4906194;29;20047;-80
2024/01/07 02:16:53;;;;;;;4.75;1.63;;;;;;;;;;4932976;28;20109;-79
2024/01/07 02:19:20;;;;;;;3.70;1.83;;;;;;;;;;4933993;28;20761;-82
2024/01/07 02:21:45;;;;;;;4.45;1.75;;;;;;;;;;4928854;28;20081;-81
2024/01/07 02:24:17;;;;;;;5.50;1.95;;;;;;;;;;4935468;28;20050;-81
2024/01/07 02:26:43;;;;;;;5.38;1.83;;;;;;;;;;4977693;28;20183;-80
2024/01/07 02:29:08;;;;;;;4.65;1.70;;;;;;;;;;5009725;28;20164;-81
2024/01/07 02:31:34;;;;;;;4.80;1.90;;;;;;;;;;5034019;28;20034;-81
2024/01/07 02:33:59;;;;;;;5.10;1.95;;;;;;;;;;5011827;28;20067;-82
2024/01/07 02:36:27;;;;;;;6.35;2.25;;;;;;;;;;5009927;28;20036;-82
2024/01/07 02:38:52;;;;;;;5.10;2.05;;;;;;;;;;5019842;28;20687;-82
2024/01/07 02:41:19;;;;;;;8.02;2.58;;;;;;;;;;5032509;28;20069;-82
2024/01/07 02:43:45;;;;;;;4.40;1.70;;;;;;;;;;5019441;28;20033;-80
2024/01/07 02:46:10;;;;;;;3.65;1.70;;;;;;;;;;5034662;28;20068;-81
2024/01/07 02:48:36;;;;;;;4.05;1.90;;;;;;;;;;5021266;28;20037;-82
2024/01/07 02:51:03;;;;;;;4.25;1.85;;;;;;;;;;5034621;28;20025;-82
2024/01/07 02:53:29;;;;;;;4.82;1.50;;;;;;;;;;5036810;28;20541;-78
2024/01/07 02:55:54;;;;;;;4.50;1.90;;;;;;;;;;4999230;28;20180;-81
2024/01/07 02:58:19;;;;;;;5.20;1.90;;;;;;;;;;5010278;28;20037;-82
2024/01/07 03:00:45;;;;;;;3.78;1.60;;;;;;;;;;5046192;28;20106;-83
2024/01/07 03:03:25;;;;;;;4.60;1.70;;;;;;;;;;5001229;28;20025;-81
2024/01/07 03:05:51;;;;;;;5.18;2.28;;;;;;;;;;5016974;28;20152;-80
2024/01/07 03:08:16;;;;;;;4.35;1.52;;;;;;;;;;5019432;28;20492;-80
2024/01/07 03:10:42;;;;;;;4.05;1.60;;;;;;;;;;5012055;28;20038;-82
2024/01/07 03:13:07;;;;;;;5.53;1.80;;;;;;;;;;5006951;28;20048;-81
2024/01/07 03:15:33;;;;;;;4.32;1.92;;;;;;;;;;5020993;28;20076;-79
2024/01/07 03:18:01;;;;;;;3.22;1.60;;;;;;;;;;5020486;28;20497;-82
2024/01/07 03:20:29;;;;;;;5.70;1.60;;;;;;;;;;5019186;28;20037;-80
2024/01/07 03:22:55;;;;;;;3.65;1.60;;;;;;;;;;5026518;28;20384;-80
2024/01/07 03:25:23;;;;;;;4.20;1.85;;;;;;;;;;5036062;28;20034;-82
2024/01/07 03:27:49;;;;;;;3.58;1.60;;;;;;;;;;5024443;28;20519;-83
2024/01/07 03:30:14;;;;;;;3.42;1.55;;;;;;;;;;5032621;28;20025;-81
2024/01/07 03:32:40;;;;;;;3.85;1.70;;;;;;;;;;5036645;28;20065;-81
2024/01/07 03:35:07;;;;;;;4.50;1.95;;;;;;;;;;5036176;28;20534;-81
2024/01/07 03:37:35;;;;;;;3.78;1.92;;;;;;;;;;5009351;28;20480;-81
2024/01/07 03:40:13;;;;;;;4.07;1.80;;;;;;;;;;5002498;28;20045;-81
2024/01/07 03:42:38;;;;;;;4.50;1.98;;;;;;;;;;5034522;28;20385;-81
2024/01/07 03:45:05;;;;;;;4.18;1.70;;;;;;;;;;5035700;28;20033;-80
2024/01/07 03:47:31;;;;;;;4.18;2.00;;;;;;;;;;5031014;28;20029;-81
2024/01/07 03:49:59;;;;;;;4.78;2.10;;;;;;;;;;5026627;28;20033;-81
2024/01/07 03:52:24;;;;;;;;;;;;;;;;;;5045672;28;20047;-82
2024/01/07 03:54:49;;;;;;;4.30;1.63;;;;;;;;;;5039616;28;20292;-81
2024/01/07 03:57:15;;;;;;;4.70;1.98;;;;;;;;;;5030825;28;20044;-80
2024/01/07 03:59:40;;;;;;;4.22;1.95;;;;;;;;;;5022077;28;20095;-82
2024/01/07 04:02:06;;;;;;;5.05;1.67;;;;;;;;;;5013938;28;20543;-83
2024/01/07 04:04:31;;;;;;;4.80;2.03;;;;;;;;;;5029898;28;20041;-82
2024/01/07 04:06:57;;;;;;;5.68;1.85;;;;;;;;;;5016324;28;20582;-82
2024/01/07 04:09:22;;;;;;;4.00;1.80;;;;;;;;;;5035241;28;20037;-81
2024/01/07 04:11:48;;;;;;;3.60;1.95;;;;;;;;;;5012845;28;20036;-81
2024/01/07 04:14:15;;;;;;;4.45;1.90;;;;;;;;;;5011470;28;20125;-82
2024/01/07 04:16:42;;;;;;;4.50;2.20;;;;;;;;;;5041653;28;20033;-82
2024/01/07 04:19:08;;;;;;;3.65;1.80;;;;;;;;;;5026253;28;20683;-82
2024/01/07 04:21:39;;;;;;;3.35;1.70;;;;;;;;;;5015808;28;20044;-82
2024/01/07 04:24:04;;;;;;;4.93;1.80;;;;;;;;;;5039681;28;20025;-82
2024/01/07 04:26:29;;;;;;;4.38;1.98;;;;;;;;;;5035431;28;20502;-82
2024/01/07 04:28:55;;;;;;;4.88;1.90;;;;;;;;;;5037953;28;20054;-83
2024/01/07 04:31:20;;;;;;;3.53;1.63;;;;;;;;;;5039214;28;20033;-83
2024/01/07 04:33:59;;;;;;;4.40;1.90;;;;;;;;;;5001958;28;20045;-81
2024/01/07 04:36:24;;;;;;;5.22;1.73;;;;;;;;;;5037081;28;20056;-82
2024/01/07 04:38:50;;;;;;;4.07;1.83;;;;;;;;;;5014451;28;20045;-82
2024/01/07 04:41:15;;;;;;;4.32;1.48;;;;;;;;;;5021668;28;20590;-82
2024/01/07 04:43:43;;;;;;;3.55;1.60;;;;;;;;;;5036557;28;20045;-81
2024/01/07 04:46:10;;;;;;;4.22;1.48;;;;;;;;;;5023047;28;20389;-82
2024/01/07 04:48:35;;;;;;;3.75;1.38;;;;;;;;;;5026856;28;20037;-83
2024/01/07 04:51:01;;;;;;;3.15;1.60;;;;;;;;;;5023700;28;22280;-82
2024/01/07 04:53:26;;;;;;;4.55;1.50;;;;;;;;;;4988942;28;20033;-82
2024/01/07 04:55:52;;;;;;;3.05;1.30;;;;;;;;;;5014675;28;20396;-82
2024/01/07 04:58:17;;;;;;;4.05;1.98;;;;;;;;;;5034138;28;20043;-82
2024/01/07 05:00:42;;;;;;;3.25;1.50;;;;;;;;;;5010155;28;20033;-81
2024/01/07 05:03:08;;;;;;;3.40;1.58;;;;;;;;;;5038198;28;20041;-82
2024/01/07 05:05:33;;;;;;;4.50;1.83;;;;;;;;;;5011831;28;20029;-82
2024/01/07 05:08:00;;;;;;;4.20;1.80;;;;;;;;;;5022954;28;20115;-82
2024/01/07 05:10:25;;;;;;;3.15;1.60;;;;;;;;;;5038086;28;20655;-82
2024/01/07 05:12:51;;;;;;;4.28;1.58;;;;;;;;;;5038578;28;20033;-82
2024/01/07 05:15:16;;;;;;;5.50;1.75;;;;;;;;;;5036278;28;20493;-83
2024/01/07 05:17:42;;;;;;;3.80;1.60;;;;;;;;;;5036111;28;20056;-82
2024/01/07 05:20:08;;;;;;;3.38;1.70;;;;;;;;;;5035936;28;20499;-82
2024/01/07 05:22:34;;;;;;;4.60;1.60;;;;;;;;;;5006013;28;20033;-82
2024/01/07 05:25:00;;;;;;;4.32;1.65;;;;;;;;;;5014379;28;20546;-82
2024/01/07 05:27:25;;;;;;;3.28;1.60;;;;;;;;;;5015838;28;20123;-82
2024/01/07 05:29:51;;;;;;;4.57;2.03;;;;;;;;;;5040377;28;20124;-82
2024/01/07 05:32:16;;;;;;;3.90;1.70;;;;;;;;;;5035620;28;20028;-82
2024/01/07 05:34:45;;;;;;;3.75;1.73;;;;;;;;;;5034716;28;20037;-82
2024/01/07 05:37:10;;;;;;;5.10;2.00;;;;;;;;;;4999457;28;20075;-81
2024/01/07 05:39:35;;;;;;;4.25;1.67;;;;;;;;;;5019250;28;20439;-80
2024/01/07 05:42:01;;;;;;;4.05;1.70;;;;;;;;;;5022498;28;20457;-81
2024/01/07 05:44:26;;;;;;;3.65;1.73;;;;;;;;;;5034806;28;20083;-80
2024/01/07 05:46:51;;;;;;;5.25;1.95;;;;;;;;;;5039009;28;20386;-80
2024/01/07 05:49:17;;;;;;;4.63;1.67;;;;;;;;;;5035452;28;20032;-81
2024/01/07 05:51:42;;;;;;;4.10;1.85;;;;;;;;;;5036408;28;20034;-83
2024/01/07 05:54:08;;;;;;;5.10;1.90;;;;;;;;;;5039486;28;20405;-82
2024/01/07 05:56:41;;;;;;;3.72;1.90;;;;;;;;;;5035991;28;20078;-81
2024/01/07 05:59:07;;;;;;;4.60;1.48;;;;;;;;;;5037841;28;20164;-83
2024/01/07 06:01:39;;;;;;;4.68;1.90;;;;;;;;;;5034293;28;20814;-82
2024/01/07 06:04:04;;;;;;;4.57;1.77;;;;;;;;;;5029139;28;20041;-81
2024/01/07 06:06:30;;;;;;;3.42;1.73;;;;;;;;;;5028305;28;20098;-81
2024/01/07 06:08:57;;;;;;;3.65;1.52;;;;;;;;;;5040245;28;20549;-82
2024/01/07 06:11:23;;;;;;;5.57;2.22;;;;;;;;;;5034806;28;20045;-82
2024/01/07 06:13:48;;;;;;;4.25;1.80;;;;;;;;;;5031048;28;20037;-82
2024/01/07 06:16:14;;;;;;;5.28;2.17;;;;;;;;;;5037743;28;20166;-81
2024/01/07 06:18:39;;;;;;;4.45;1.90;;;;;;;;;;5006970;28;20404;-82
2024/01/07 06:21:05;;;;;;;4.10;2.10;;;;;;;;;;5015989;28;20183;-81
2024/01/07 06:23:32;;;;;;;4.68;2.08;;;;;;;;;;5019207;28;20040;-82
2024/01/07 06:25:57;;;;;;;;;;;;;;;;;;5023943;28;20033;-81
2024/01/07 06:28:28;;;;;;;7.20;2.17;;;;;;;;;;5035392;28;20358;-81
2024/01/07 06:30:53;;;;;;;5.93;1.80;;;;;;;;;;5008377;28;20268;-83
2024/01/07 06:33:22;;;;;;;4.47;1.90;;;;;;;;;;5035873;28;20051;-80
2024/01/07 06:35:47;;;;;;;4.60;2.00;;;;;;;;;;5024476;28;20588;-82
2024/01/07 06:38:14;;;;;;;4.78;1.98;;;;;;;;;;5033312;28;20128;-83
2024/01/07 06:40:39;;;;;;;4.63;1.98;;;;;;;;;;5035970;28;20036;-81
2024/01/07 06:43:05;;;;;;;4.15;2.10;;;;;;;;;;5032545;28;20040;-82
2024/01/07 06:45:31;;;;;;;3.95;1.52;;;;;;;;;;5033387;28;20120;-83
2024/01/07 06:48:02;;;;;;;4.10;1.98;;;;;;;;;;5008948;28;20028;-82
2024/01/07 06:50:27;;;;;;;3.80;2.10;;;;;;;;;;5035110;28;20526;-83
2024/01/07 06:52:52;;;;;;;6.50;2.03;;;;;;;;;;5026636;28;20065;-80
2024/01/07 06:55:18;;;;;;;5.63;2.20;;;;;;;;;;5031863;28;20029;-83
2024/01/07 06:57:43;;;;;;;3.20;1.65;;;;;;;;;;5018107;28;20124;-82
2024/01/07 07:00:15;;;;;;;5.97;2.08;;;;;;;;;;5017422;28;20038;-83
2024/01/07 07:02:40;;;;;;;3.75;1.85;;;;;;;;;;5032508;28;20444;-82
2024/01/07 07:05:06;;;;;;;4.03;1.98;;;;;;;;;;5042037;28;20036;-82
2024/01/07 07:07:32;;;;;;;5.38;1.90;;;;;;;;;;5024311;28;20040;-84
2024/01/07 07:09:57;;;;;;;4.25;1.90;;;;;;;;;;5009639;28;20396;-80
2024/01/07 07:12:22;;;;;;;3.53;1.63;;;;;;;;;;5024489;28;20518;-81
2024/01/07 07:14:48;;;;;;;4.30;1.90;;;;;;;;;;5032176;28;20036;-82
2024/01/07 07:17:14;;;;;;;5.82;2.05;;;;;;;;;;5010086;28;20036;-83
2024/01/07 07:19:40;;;;;;;7.10;1.80;;;;;;;;;;5032751;28;20068;-82
2024/01/07 07:22:05;;;;;;;4.70;2.10;;;;;;;;;;5033731;28;20065;-82
2024/01/07 07:24:30;;;;;;;4.53;2.15;;;;;;;;;;4997159;28;20030;-82
2024/01/07 07:26:59;;;;;;;4.22;1.77;;;;;;;;;;5009498;28;20069;-83
2024/01/07 07:29:24;;;;;;;5.32;2.35;;;;;;;;;;5008914;28;20124;-82
2024/01/07 07:31:50;;;;;;;3.55;1.85;;;;;;;;;;5019909;28;20160;-81
2024/01/07 07:34:15;;;;;;;3.92;1.90;;;;;;;;;;5011399;28;20056;-82
2024/01/07 07:36:42;;;;;;;4.88;2.05;;;;;;;;;;5025761;28;20040;-82
2024/01/07 07:39:09;;;;;;;;;;;;;;;;;;5021369;28;20066;-82
2024/01/07 07:41:34;;;;;;;5.30;2.08;;;;;;;;;;5036260;28;20245;-83
2024/01/07 07:44:00;;;;;;;5.53;1.98;;;;;;;;;;5034972;28;20053;-82
2024/01/07 07:46:25;;;;;;;4.60;2.08;;;;;;;;;;5032821;28;20442;-82
2024/01/07 07:48:50;;;;;;;3.72;1.88;;;;;;;;;;5019638;28;20037;-80
2024/01/07 07:51:16;;;;;;;5.57;1.90;;;;;;;;;;5035912;28;20476;-80
2024/01/07 07:53:44;;;;;;;4.65;2.00;;;;;;;;;;5021014;28;20443;-80
2024/01/07 07:56:10;;;;;;;4.35;2.13;;;;;;;;;;5032670;28;20037;-81
2024/01/07 07:58:39;;;;;;;4.38;1.98;;;;;;;;;;5021012;28;20506;-81
2024/01/07 08:01:05;;;;;;;5.30;2.20;;;;;;;;;;5025066;28;20050;-81
2024/01/07 08:03:31;;;;;;;4.03;1.88;;;;;;;;;;5034573;28;20455;-79
2024/01/07 08:05:57;;;;;;;4.72;2.15;;;;;;;;;;5032383;28;20036;-79
2024/01/07 08:08:22;;;;;;;4.55;1.85;;;;;;;;;;5036040;28;20057;-80
2024/01/07 08:10:48;;;;;;;3.83;1.83;;;;;;;;;;5010008;28;20040;-80
2024/01/07 08:13:13;;;;;;;5.47;2.25;;;;;;;;;;5037165;28;20060;-79
2024/01/07 08:15:39;;;;;;;5.38;1.77;;;;;;;;;;5033480;28;20172;-80
2024/01/07 08:18:05;;;;;;;3.67;1.80;;;;;;;;;;5033738;28;20124;-79
2024/01/07 08:20:30;;;;;;;3.85;1.77;;;;;;;;;;5031157;28;20041;-80
2024/01/07 08:22:58;;;;;;;4.47;2.10;;;;;;;;;;5018671;28;20029;-82
2024/01/07 08:25:24;;;;;;;5.00;1.70;;;;;;;;;;5007609;28;20427;-81
2024/01/07 08:27:50;;;;;;;6.05;2.17;;;;;;;;;;5024464;28;20074;-79
2024/01/07 08:30:15;;;;;;;4.72;1.83;;;;;;;;;;5033715;28;20492;-81
2024/01/07 08:32:42;;;;;;;4.18;1.90;;;;;;;;;;5034236;28;20041;-81
2024/01/07 08:35:07;;;;;;;4.22;2.00;;;;;;;;;;5037719;28;20032;-81
2024/01/07 08:37:33;;;;;;;4.00;1.85;;;;;;;;;;5026744;28;20719;-81
2024/01/07 08:40:01;;;;;;;4.70;2.30;;;;;;;;;;5041230;28;20048;-81
2024/01/07 08:42:29;;;;;;;3.92;1.75;;;;;;;;;;5037870;28;20840;-81
2024/01/07 08:44:55;;;;;;;4.47;2.05;;;;;;;;;;5038084;28;20037;-81
2024/01/07 08:47:26;;;;;;;4.63;2.20;;;;;;;;;;5008244;28;20043;-83
2024/01/07 08:49:54;;;;;;;5.63;2.17;;;;;;;;;;5024394;28;20135;-82
2024/01/07 08:52:20;;;;;;;4.43;2.40;;;;;;;;;;5043956;28;20029;-81
2024/01/07 08:54:45;;;;;;;4.53;2.05;;;;;;;;;;5037968;28;20090;-81
2024/01/07 08:57:11;;;;;;;4.85;2.30;;;;;;;;;;5021391;28;20484;-82
2024/01/07 08:59:36;;;;;;;3.88;2.10;;;;;;;;;;5039759;28;20079;-82
2024/01/07 09:02:02;;;;;;;4.85;2.28;;;;;;;;;;5036450;28;20037;-81
2024/01/07 09:04:28;;;;;;;6.15;2.05;;;;;;;;;;5021290;28;20129;-82
2024/01/07 09:06:53;;;;;;;5.22;2.20;;;;;;;;;;5021743;28;20116;-83
2024/01/07 09:09:19;;;;;;;4.90;2.13;;;;;;;;;;5022215;28;20037;-82
2024/01/07 09:11:45;;;;;;;4.78;2.17;;;;;;;;;;5038652;28;20091;-83
2024/01/07 09:14:11;;;;;;;5.00;2.10;;;;;;;;;;5031023;28;20062;-81
2024/01/07 09:16:39;;;;;;;6.68;2.40;;;;;;;;;;5028490;28;20116;-81
2024/01/07 09:19:04;;;;;;;5.93;2.08;;;;;;;;;;5037411;28;20401;-80
2024/01/07 09:21:29;;;;;;;6.35;2.25;;;;;;;;;;5013360;28;20048;-84
2024/01/07 09:23:56;;;;;;;5.55;2.25;;;;;;;;;;5036469;28;20061;-83
2024/01/07 09:26:21;;;;;;;4.63;2.17;;;;;;;;;;5023253;28;20038;-82
2024/01/07 09:28:47;;;;;;;5.15;2.25;;;;;;;;;;5021574;28;20705;-83
2024/01/07 09:31:12;;;;;;;4.63;2.20;;;;;;;;;;5038438;28;20060;-83
2024/01/07 09:33:38;;;;;;;5.30;2.60;;;;;;;;;;5037579;28;20547;-84
2024/01/07 09:36:04;;;;;;;4.88;2.40;;;;;;;;;;5012936;28;20067;-79
2024/01/07 09:38:29;;;;;;;5.43;2.33;;;;;;;;;;5014515;28;20115;-83
2024/01/07 09:40:55;;;;;;;6.28;2.33;;;;;;;;;;5028310;28;20033;-84
2024/01/07 09:43:27;;;;;;;4.32;2.00;;;;;;;;;;5035985;28;20473;-82
2024/01/07 09:45:58;;;;;;;5.05;2.50;;;;;;;;;;5034267;28;20436;-82
2024/01/07 09:48:24;;;;;;;6.53;2.80;;;;;;;;;;5014980;28;20047;-82
2024/01/07 09:50:52;;;;;;;6.20;2.30;;;;;;;;;;4998114;28;20448;-84
2024/01/07 09:53:20;;;;;;;6.07;2.50;;;;;;;;;;5024388;28;20038;-83
2024/01/07 09:56:17;;;;;;;4.57;2.42;;;;;;;;;;5035899;28;20032;-83
2024/01/07 09:58:43;;;;;;;6.32;3.00;;;;;;;;;;5038320;28;20509;-84
2024/01/07 10:01:09;;;;;;;7.03;2.63;;;;;;;;;;5020488;28;20099;-83
2024/01/07 10:03:37;;;;;;;8.93;3.20;;;;;;;;;;5024621;28;20038;-83
2024/01/07 10:06:03;;;;;;;5.80;2.80;;;;;;;;;;5023385;28;20063;-83
2024/01/07 10:08:29;;;;;;;6.40;3.38;;;;;;;;;;5005363;28;20033;-83
2024/01/07 10:10:54;;;;;;;6.65;3.35;;;;;;;;;;5034323;28;20648;-83
2024/01/07 10:13:22;;;;;;;7.25;3.50;;;;;;;;;;5018629;28;20033;-84
2024/01/07 10:15:48;;;;;;;7.50;3.70;;;;;;;;;;5036201;28;20530;-83
2024/01/07 10:18:24;;;;;;;6.30;3.22;;;;;;;;;;5038498;28;20042;-81
2024/01/07 10:20:49;;;;;;;6.78;3.63;;;;;;;;;;5006644;28;20029;-82
2024/01/07 10:23:27;;;;;;;6.53;3.55;;;;;;;;;;5003791;28;20052;-82
2024/01/07 10:25:55;;;;;;;7.45;3.53;;;;;;;;;;5019423;28;20029;-83
2024/01/07 10:28:21;;;;;;;7.28;3.50;;;;;;;;;;5040674;28;20052;-82
2024/01/07 10:30:50;;;;;;;7.63;3.70;;;;;;;;;;5036781;28;20060;-82
2024/01/07 10:33:18;;;;;;;7.20;3.92;;;;;;;;;;5027247;28;20396;-82
2024/01/07 10:35:51;;;;;;;8.40;4.03;;;;;;;;;;5032377;28;20393;-82
2024/01/07 10:38:17;;;;;;;7.70;4.03;;;;;;;;;;5035771;28;20045;-83
2024/01/07 10:40:44;;;;;;;9.18;4.03;;;;;;;;;;5013054;28;20072;-85
2024/01/07 10:43:09;;;;;;;9.60;3.47;;;;;;;;;;5036911;28;20033;-84
2024/01/07 10:45:34;;;;;;;7.22;3.90;;;;;;;;;;5017598;28;20048;-84
2024/01/07 10:48:06;;;;;;;6.78;3.90;;;;;;;;;;5032605;28;20033;-84
2024/01/07 10:50:32;;;;;;;6.40;3.60;;;;;;;;;;5035694;28;20388;-82
2024/01/07 10:52:58;;;;;;;7.50;3.70;;;;;;;;;;5034946;28;20033;-83
2024/01/07 10:55:26;;;;;;;9.55;4.10;;;;;;;;;;5033621;28;20037;-83
2024/01/07 10:57:53;;;;;;;8.50;4.93;;;;;;;;;;5036414;28;20516;-83
2024/01/07 11:00:19;;;;;;;8.68;4.30;;;;;;;;;;5038188;28;20044;-83
2024/01/07 11:03:42;;;;;;;8.13;4.28;;;;;;;;;;5035287;28;20029;-83
2024/01/07 11:06:35;;;;;;;8.23;4.70;;;;;;;;;;4964819;28;20130;-83
2024/01/07 11:09:23;;;;;;;6.35;3.63;;;;;;;;;;4950943;28;20035;-82
2024/01/07 11:11:52;;;;;;;7.30;4.10;;;;;;;;;;4999067;28;20036;-83
2024/01/07 11:14:36;;;;;;;7.93;3.95;;;;;;;;;;5018162;28;20044;-82
2024/01/07 11:17:03;;;;;;;8.52;4.45;;;;;;;;;;5037803;28;20602;-83
2024/01/07 11:19:28;;;;;;;8.98;4.43;;;;;;;;;;5020289;28;20038;-83
2024/01/07 11:22:29;;;;;;;10.00;4.43;;;;;;;;;;5034523;28;20074;-81
2024/01/07 11:24:59;;;;;;;9.30;4.43;;;;;;;;;;5026715;28;20063;-82
2024/01/07 11:27:25;;;;;;;7.13;4.00;;;;;;;;;;5036778;28;20065;-83
2024/01/07 11:30:06;;;;;;;10.13;4.80;;;;;;;;;;5004205;28;20048;-84
2024/01/07 11:32:33;;;;;;;11.60;4.55;;;;;;;;;;5021170;28;20784;-82
2024/01/07 11:34:59;;;;;;;11.40;4.72;;;;;;;;;;5036275;28;20525;-83
2024/01/07 11:37:25;;;;;;;8.90;4.45;;;;;;;;;;5036182;28;20177;-83
2024/01/07 11:39:54;;;;;;;7.10;3.83;;;;;;;;;;5025252;28;20041;-83
2024/01/07 11:42:20;;;;;;;9.07;4.43;;;;;;;;;;5031385;28;20057;-83
2024/01/07 11:44:51;;;;;;;7.97;4.20;;;;;;;;;;5025640;28;20067;-83
2024/01/07 11:47:17;;;;;;;8.70;4.15;;;;;;;;;;5010657;28;20371;-83
2024/01/07 11:49:42;;;;;;;8.57;4.60;;;;;;;;;;5032140;28;20037;-83
2024/01/07 11:52:16;;;;;;;7.57;4.38;;;;;;;;;;5025849;28;20040;-82
2024/01/07 11:54:41;;;;;;;7.57;4.15;;;;;;;;;;5023639;28;20029;-83
2024/01/07 11:57:07;;;;;;;8.25;3.92;;;;;;;;;;5037713;28;20385;-82
2024/01/07 11:59:34;;;;;;;7.55;4.30;;;;;;;;;;5010362;28;20556;-82
2024/01/07 12:02:04;;;;;;;8.40;4.20;;;;;;;;;;5015664;28;20555;-82
2024/01/07 12:04:56;;;;;;;8.77;4.07;;;;;;;;;;5037773;28;20447;-83
2024/01/07 12:07:21;;;;;;;8.20;3.75;;;;;;;;;;5031154;28;20037;-83
2024/01/07 12:09:55;;;;;;;7.70;3.95;;;;;;;;;;5020889;28;20397;-83
2024/01/07 12:12:21;;;;;;;7.65;3.80;;;;;;;;;;5028659;28;20029;-84
2024/01/07 12:14:46;;;;;;;6.93;3.92;;;;;;;;;;5011941;28;20555;-83
2024/01/07 12:17:12;;;;;;;6.22;3.50;;;;;;;;;;5024451;28;20498;-82
2024/01/07 12:19:37;;;;;;;8.02;3.67;;;;;;;;;;5037411;28;20416;-83
2024/01/07 12:22:04;;;;;;;7.05;3.42;;;;;;;;;;5036758;28;20485;-82
2024/01/07 12:24:29;;;;;;;6.88;3.95;;;;;;;;;;5038111;28;20463;-82
2024/01/07 12:26:57;;;;;;;6.53;3.58;;;;;;;;;;5036972;28;20131;-83
2024/01/07 12:29:22;;;;;;;7.88;4.05;;;;;;;;;;5038186;28;20172;-82
2024/01/07 12:32:09;;;;;;;7.07;3.72;;;;;;;;;;5021536;28;20500;-82
2024/01/07 12:34:36;;;;;;;7.90;3.78;;;;;;;;;;5033021;28;20051;-84
2024/01/07 12:37:02;;;;;;;8.50;3.65;;;;;;;;;;5036812;28;20038;-84
2024/01/07 12:39:27;;;;;;;7.57;3.60;;;;;;;;;;5036975;28;20408;-84
2024/01/07 12:41:52;;;;;;;7.00;3.53;;;;;;;;;;5024625;28;20074;-84
2024/01/07 12:44:18;;;;;;;6.30;3.38;;;;;;;;;;5024439;28;20496;-84
2024/01/07 12:46:52;;;;;;;7.40;3.38;;;;;;;;;;5045915;28;20043;-83
2024/01/07 12:49:17;;;;;;;9.68;3.72;;;;;;;;;;5046406;28;20025;-83
2024/01/07 12:51:42;;;;;;;8.25;3.83;;;;;;;;;;5014050;28;20455;-83
2024/01/07 12:54:08;;;;;;;6.05;3.05;;;;;;;;;;5035787;28;20094;-84
2024/01/07 12:56:33;;;;;;;7.00;3.40;;;;;;;;;;5037863;28;20387;-83
2024/01/07 12:58:58;;;;;;;7.57;3.28;;;;;;;;;;5033770;28;20051;-83
2024/01/07 13:01:44;;;;;;;6.45;2.90;;;;;;;;;;5037561;28;20037;-83
2024/01/07 13:04:14;;;;;;;5.93;2.83;;;;;;;;;;4963558;28;20046;-83
2024/01/07 13:06:40;;;;;;;6.28;3.05;;;;;;;;;;4925115;28;20030;-83
2024/01/07 13:09:09;;;;;;;6.95;2.97;;;;;;;;;;4937911;28;20041;-83
2024/01/07 13:11:34;;;;;;;5.88;2.70;;;;;;;;;;4916023;28;20048;-83
2024/01/07 13:14:01;;;;;;;4.78;2.50;;;;;;;;;;4949131;28;20528;-84
2024/01/07 13:16:27;;;;;;;5.70;3.08;;;;;;;;;;4961644;28;20117;-83
2024/01/07 13:18:53;;;;;;;6.75;3.03;;;;;;;;;;4965508;28;20122;-83
2024/01/07 13:21:23;;;;;;;6.22;3.05;;;;;;;;;;4942930;28;20039;-83
2024/01/07 13:23:51;;;;;;;7.97;2.95;;;;;;;;;;4942471;28;20042;-81
2024/01/07 13:26:22;;;;;;;5.43;2.70;;;;;;;;;;4934379;28;20051;-83
2024/01/07 13:28:48;;;;;;;6.32;3.13;;;;;;;;;;4933752;28;20090;-83
2024/01/07 13:31:14;;;;;;;5.85;2.80;;;;;;;;;;4946021;28;20043;-83
2024/01/07 13:33:40;;;;;;;7.43;3.10;;;;;;;;;;4955469;28;20035;-82
2024/01/07 13:36:09;;;;;;;8.52;3.28;;;;;;;;;;4923722;28;20052;-83
2024/01/07 13:38:43;;;;;;;7.97;2.97;;;;;;;;;;4950830;28;20588;-79
2024/01/07 13:41:16;;;;;;;5.65;3.05;;;;;;;;;;4979398;28;20042;-79
2024/01/07 13:43:42;;;;;;;5.53;3.08;;;;;;;;;;5023157;28;20044;-79
2024/01/07 13:46:08;;;;;;;6.88;3.22;;;;;;;;;;5022251;28;20071;-79
2024/01/07 13:48:34;;;;;;;6.07;3.05;;;;;;;;;;5004695;28;20029;-79
2024/01/07 13:51:00;;;;;;;5.38;2.92;;;;;;;;;;5014982;28;20098;-79
2024/01/07 13:53:28;;;;;;;5.32;3.17;;;;;;;;;;5016478;28;20515;-78
2024/01/07 13:55:54;;;;;;;5.05;2.63;;;;;;;;;;5027287;28;20396;-80
2024/01/07 13:58:20;;;;;;;5.28;2.85;;;;;;;;;;5042817;28;20040;-80
2024/01/07 14:00:45;;;;;;;4.95;2.97;;;;;;;;;;5023526;28;20037;-80
2024/01/07 14:03:10;;;;;;;5.53;3.08;;;;;;;;;;5034706;28;20108;-80
2024/01/07 14:05:36;;;;;;;5.82;3.22;;;;;;;;;;5023626;28;20040;-80
2024/01/07 14:08:07;;;;;;;5.95;2.83;;;;;;;;;;5039644;28;20436;-78
2024/01/07 14:10:33;;;;;;;6.00;2.97;;;;;;;;;;5017185;28;20049;-78
2024/01/07 14:12:58;;;;;;;6.15;3.10;;;;;;;;;;5019364;28;20037;-79
2024/01/07 14:15:23;;;;;;;7.43;3.40;;;;;;;;;;5024328;28;20037;-83
2024/01/07 14:17:49;;;;;;;6.72;3.22;;;;;;;;;;5035975;28;20033;-79
2024/01/07 14:20:14;;;;;;;5.75;3.05;;;;;;;;;;5033476;28;20524;-80
2024/01/07 14:22:40;;;;;;;4.85;2.47;;;;;;;;;;5036887;28;20432;-83
2024/01/07 14:25:05;;;;;;;6.47;2.88;;;;;;;;;;5021319;28;20033;-83
2024/01/07 14:27:31;;;;;;;5.15;2.58;;;;;;;;;;5013645;28;20041;-83
2024/01/07 14:29:56;;;;;;;5.22;2.60;;;;;;;;;;5026158;28;20033;-84
2024/01/07 14:32:25;;;;;;;5.05;2.55;;;;;;;;;;5024919;28;20044;-83
2024/01/07 14:34:51;;;;;;;5.13;2.53;;;;;;;;;;4995387;28;20038;-83
2024/01/07 14:37:22;;;;;;;4.57;2.50;;;;;;;;;;5023840;28;20504;-84
2024/01/07 14:39:47;;;;;;;5.47;2.50;;;;;;;;;;5018506;28;20041;-83
2024/01/07 14:42:13;;;;;;;6.63;2.50;;;;;;;;;;5032415;28;20030;-84
2024/01/07 14:44:38;;;;;;;4.50;2.60;;;;;;;;;;5009471;28;20056;-84